createdAt,value
2018-06-14T00:01:55.522Z,7.37
2018-06-14T00:04:22.881Z,7.13
2018-06-14T00:06:50.216Z,7.50
2018-06-14T00:09:17.565Z,6.17
2018-06-14T00:11:44.933Z,8.00
2018-06-14T00:14:12.250Z,6.80
2018-06-14T00:16:39.566Z,8.63
2018-06-14T00:19:06.925Z,7.10
2018-06-14T00:21:34.388Z,6.80
2018-06-14T00:24:01.744Z,6.93
2018-06-14T00:26:29.057Z,7.60
2018-06-14T00:28:56.489Z,7.37
2018-06-14T00:31:23.909Z,7.13
2018-06-14T00:33:51.392Z,8.23
2018-06-14T00:36:18.758Z,8.10
2018-06-14T00:38:46.146Z,7.73
2018-06-14T00:41:13.472Z,8.70
2018-06-14T00:43:40.817Z,7.10
2018-06-14T00:46:08.129Z,7.80
2018-06-14T00:48:35.480Z,8.10
2018-06-14T00:51:02.873Z,7.70
2018-06-14T00:53:30.196Z,8.27
2018-06-14T00:55:57.601Z,7.80
2018-06-14T00:58:24.977Z,8.23
2018-06-14T01:00:52.386Z,9.70
2018-06-14T01:03:20.141Z,7.73
2018-06-14T01:05:47.491Z,8.13
2018-06-14T01:08:14.890Z,7.60
2018-06-14T01:10:42.277Z,8.93
2018-06-14T01:13:09.625Z,8.43
2018-06-14T01:15:36.973Z,7.87
2018-06-14T01:18:04.437Z,8.50
2018-06-14T01:20:31.836Z,8.13
2018-06-14T01:22:59.169Z,8.80
2018-06-14T01:25:26.557Z,8.80
2018-06-14T01:27:53.901Z,8.77
2018-06-14T01:30:21.275Z,9.17
2018-06-14T01:32:48.685Z,9.13
2018-06-14T01:35:16.021Z,9.50
2018-06-14T01:37:55.021Z,10.20
2018-06-14T01:40:22.370Z,10.50
2018-06-14T01:42:49.842Z,8.87
2018-06-14T01:45:17.197Z,9.00
2018-06-14T01:47:44.522Z,10.70
2018-06-14T01:50:11.878Z,10.73
2018-06-14T01:52:39.233Z,10.23
2018-06-14T01:55:06.574Z,10.17
2018-06-14T01:57:33.954Z,10.00
2018-06-14T02:00:01.341Z,10.73
2018-06-14T02:02:28.769Z,11.37
2018-06-14T02:04:56.177Z,10.10
2018-06-14T02:07:23.501Z,11.20
2018-06-14T02:09:50.929Z,12.73
2018-06-14T02:12:18.273Z,10.03
2018-06-14T02:14:45.661Z,10.53
2018-06-14T02:17:13.074Z,9.90
2018-06-14T02:19:40.393Z,10.30
2018-06-14T02:22:07.760Z,10.80
2018-06-14T02:24:35.266Z,10.30
2018-06-14T02:27:02.597Z,10.70
2018-06-14T02:29:29.958Z,10.90
2018-06-14T02:31:57.362Z,10.80
2018-06-14T02:34:24.769Z,10.80
2018-06-14T02:36:52.220Z,11.87
2018-06-14T02:39:19.687Z,10.87
2018-06-14T02:41:47.089Z,11.40
2018-06-14T02:44:14.465Z,11.07
2018-06-14T02:46:41.901Z,10.50
2018-06-14T02:49:09.402Z,10.80
2018-06-14T02:51:36.739Z,12.20
2018-06-14T02:54:04.109Z,12.30
2018-06-14T02:56:31.462Z,10.93
2018-06-14T02:58:58.784Z,10.90
2018-06-14T03:01:26.101Z,11.07
2018-06-14T03:03:53.485Z,11.80
2018-06-14T03:06:20.896Z,10.67
2018-06-14T03:08:48.361Z,10.60
2018-06-14T03:11:15.750Z,11.10
2018-06-14T03:13:43.154Z,10.77
2018-06-14T03:16:10.522Z,11.03
2018-06-14T03:18:37.897Z,10.60
2018-06-14T03:21:05.333Z,11.73
2018-06-14T03:23:32.717Z,12.40
2018-06-14T03:26:00.204Z,12.60
2018-06-14T03:28:27.575Z,11.23
2018-06-14T03:30:54.997Z,10.90
2018-06-14T03:33:22.321Z,11.10
2018-06-14T03:35:49.659Z,11.90
2018-06-14T03:38:17.053Z,11.47
2018-06-14T03:40:44.534Z,11.47
2018-06-14T03:43:11.928Z,11.80
2018-06-14T03:45:39.261Z,11.30
2018-06-14T03:48:06.621Z,12.57
2018-06-14T03:50:33.974Z,11.10
2018-06-14T03:53:01.346Z,11.80
2018-06-14T03:55:28.693Z,11.53
2018-06-14T03:57:56.120Z,10.87
2018-06-14T04:00:23.464Z,10.80
2018-06-14T04:02:50.917Z,10.90
2018-06-14T04:05:18.296Z,10.93
2018-06-14T04:07:45.779Z,11.70
2018-06-14T04:10:13.113Z,11.60
2018-06-14T04:12:40.717Z,11.40
2018-06-14T04:15:08.106Z,11.60
2018-06-14T04:17:35.553Z,12.23
2018-06-14T04:20:02.999Z,10.83
2018-06-14T04:22:30.351Z,11.00
2018-06-14T04:24:57.802Z,10.93
2018-06-14T04:27:25.780Z,11.30
2018-06-14T04:29:53.328Z,11.70
2018-06-14T04:32:20.653Z,10.90
2018-06-14T04:34:47.974Z,12.10
2018-06-14T04:37:15.338Z,12.03
2018-06-14T04:39:42.910Z,10.67
2018-06-14T04:42:10.243Z,11.13
2018-06-14T04:44:37.585Z,11.40
2018-06-14T04:47:05.046Z,10.90
2018-06-14T04:49:32.368Z,10.23
2018-06-14T04:51:59.685Z,12.43
2018-06-14T04:54:27.085Z,11.00
2018-06-14T04:56:54.817Z,12.03
2018-06-14T04:59:22.182Z,11.80
2018-06-14T05:01:49.497Z,12.03
2018-06-14T05:04:16.829Z,10.73
2018-06-14T05:06:44.174Z,10.27
2018-06-14T05:09:12.969Z,11.67
2018-06-14T05:11:40.891Z,10.90
2018-06-14T05:14:08.286Z,10.53
2018-06-14T05:16:35.621Z,10.00
2018-06-14T05:19:03.013Z,10.73
2018-06-14T05:21:30.437Z,10.43
2018-06-14T05:23:57.851Z,10.73
2018-06-14T05:26:25.183Z,10.40
2018-06-14T05:28:52.521Z,10.27
2018-06-14T05:31:19.901Z,9.83
2018-06-14T05:33:47.269Z,10.27
2018-06-14T05:36:14.717Z,10.70
2018-06-14T05:38:42.106Z,10.70
2018-06-14T05:41:09.563Z,10.30
2018-06-14T05:43:36.893Z,9.80
2018-06-14T05:46:04.217Z,9.60
2018-06-14T05:48:31.549Z,9.00
2018-06-14T05:50:58.973Z,8.80
2018-06-14T05:53:26.345Z,9.60
2018-06-14T05:55:53.933Z,9.10
2018-06-14T05:58:21.273Z,8.60
2018-06-14T06:00:48.683Z,8.83
2018-06-14T06:03:16.007Z,8.10
2018-06-14T06:05:43.353Z,8.27
2018-06-14T06:08:10.777Z,8.50
2018-06-14T06:10:38.485Z,7.87
2018-06-14T06:13:05.800Z,9.17
2018-06-14T06:15:33.097Z,7.77
2018-06-14T06:18:00.542Z,8.10
2018-06-14T06:20:27.858Z,7.70
2018-06-14T06:22:55.197Z,7.87
2018-06-14T06:25:22.653Z,7.33
2018-06-14T06:27:50.033Z,8.17
2018-06-14T06:30:17.392Z,8.30
2018-06-14T06:32:44.705Z,7.10
2018-06-14T06:35:12.121Z,7.13
2018-06-14T06:37:39.480Z,7.67
2018-06-14T06:40:06.833Z,7.80
2018-06-14T06:42:34.166Z,7.83
2018-06-14T06:45:01.605Z,7.60
2018-06-14T06:47:28.959Z,6.80
2018-06-14T06:49:56.385Z,7.60
2018-06-14T06:52:23.704Z,7.40
2018-06-14T06:54:51.145Z,8.30
2018-06-14T06:57:18.774Z,7.90
2018-06-14T06:59:46.105Z,8.00
2018-06-14T07:02:13.453Z,7.60
2018-06-14T07:04:40.818Z,7.57
2018-06-14T07:07:08.177Z,8.13
2018-06-14T07:09:35.482Z,7.10
2018-06-14T07:12:02.984Z,7.50
2018-06-14T07:14:30.289Z,7.80
2018-06-14T07:16:57.609Z,7.93
2018-06-14T07:19:25.025Z,9.50
2018-06-14T07:21:52.420Z,8.30
2018-06-14T07:24:19.766Z,8.43
2018-06-14T07:26:47.137Z,7.20
2018-06-14T07:29:14.528Z,7.60
2018-06-14T07:31:41.921Z,8.37
2018-06-14T07:36:43.425Z,8.00
2018-06-14T07:39:11.994Z,8.33
2018-06-14T07:41:39.400Z,8.07
2018-06-14T07:44:06.721Z,7.63
2018-06-14T07:46:34.211Z,9.00
2018-06-14T07:49:02.073Z,8.37
2018-06-14T07:51:29.496Z,9.00
2018-06-14T07:53:56.857Z,8.03
2018-06-14T07:56:24.234Z,7.40
2018-06-14T07:58:51.561Z,7.23
2018-06-14T08:01:19.405Z,9.20
2018-06-14T08:03:46.731Z,8.60
2018-06-14T08:06:14.090Z,7.70
2018-06-14T08:08:41.410Z,8.90
2018-06-14T08:11:08.810Z,7.63
2018-06-14T08:13:36.134Z,7.80
2018-06-14T08:16:03.681Z,8.43
2018-06-14T08:18:31.003Z,8.23
2018-06-14T08:20:58.405Z,8.70
2018-06-14T08:23:25.941Z,8.87
2018-06-14T08:25:53.546Z,9.37
2018-06-14T08:28:20.862Z,12.03
2018-06-14T08:30:48.281Z,9.13
2018-06-14T08:33:15.837Z,8.20
2018-06-14T08:35:43.253Z,8.57
2018-06-14T08:38:10.569Z,9.20
2018-06-14T08:40:37.969Z,8.60
2018-06-14T08:43:05.309Z,9.40
2018-06-14T08:45:33.282Z,8.93
2018-06-14T08:48:00.598Z,9.90
2018-06-14T08:50:27.945Z,10.30
2018-06-14T08:52:55.496Z,9.30
2018-06-14T08:55:22.853Z,9.13
2018-06-14T08:57:50.313Z,9.70
2018-06-14T09:00:17.654Z,9.20
2018-06-14T09:02:44.998Z,8.40
2018-06-14T09:05:12.497Z,8.00
2018-06-14T09:07:39.913Z,10.63
2018-06-14T09:10:07.249Z,8.17
2018-06-14T09:12:34.569Z,7.20
2018-06-14T09:15:01.934Z,10.43
2018-06-14T09:17:29.329Z,8.50
2018-06-14T09:19:56.708Z,6.57
2018-06-14T09:22:24.073Z,8.00
2018-06-14T09:24:51.477Z,8.53
2018-06-14T09:27:18.846Z,8.33
2018-06-14T09:29:46.221Z,8.90
2018-06-14T09:32:13.553Z,7.93
2018-06-14T09:34:40.985Z,7.87
2018-06-14T09:37:08.317Z,6.33
2018-06-14T09:39:35.633Z,7.43
2018-06-14T09:42:03.127Z,7.63
2018-06-14T09:44:30.577Z,8.17
2018-06-14T09:46:57.904Z,8.07
2018-06-14T09:49:25.236Z,7.83
2018-06-14T09:51:52.632Z,7.93
2018-06-14T09:54:19.945Z,9.33
2018-06-14T09:56:47.299Z,8.60
2018-06-14T09:59:14.635Z,8.67
2018-06-14T10:01:41.990Z,7.37
2018-06-14T10:04:09.313Z,8.83
2018-06-14T10:06:36.630Z,8.73
2018-06-14T10:09:07.005Z,9.03
2018-06-14T10:11:34.381Z,7.03
2018-06-14T10:14:01.789Z,7.73
2018-06-14T10:16:29.260Z,7.47
2018-06-14T10:18:56.598Z,7.90
2018-06-14T10:21:23.990Z,7.17
2018-06-14T10:23:51.496Z,7.20
2018-06-14T10:26:18.808Z,7.07
2018-06-14T10:28:46.210Z,7.17
2018-06-14T10:31:13.573Z,6.03
2018-06-14T10:33:41.010Z,6.27
2018-06-14T10:36:08.345Z,5.67
2018-06-14T10:38:35.646Z,6.90
2018-06-14T10:41:03.045Z,6.37
2018-06-14T10:43:30.510Z,6.60
2018-06-14T10:45:57.802Z,6.90
2018-06-14T10:48:25.281Z,6.03
2018-06-14T10:50:52.695Z,5.80
2018-06-14T10:53:20.026Z,6.40
2018-06-14T10:55:47.471Z,6.10
2018-06-14T10:58:14.857Z,7.40
2018-06-14T11:00:42.189Z,6.60
2018-06-14T11:03:09.510Z,6.20
2018-06-14T11:05:36.869Z,7.03
2018-06-14T11:08:04.392Z,5.53
2018-06-14T11:10:31.713Z,6.40
2018-06-14T11:12:59.133Z,6.13
2018-06-14T11:15:27.217Z,7.73
2018-06-14T11:17:54.539Z,6.07
2018-06-14T11:20:21.944Z,7.30
2018-06-14T11:22:49.275Z,5.60
2018-06-14T11:25:16.602Z,6.27
2018-06-14T11:27:44.014Z,6.40
2018-06-14T11:30:11.313Z,6.80
2018-06-14T11:32:38.684Z,6.73
2018-06-14T11:35:06.090Z,6.53
2018-06-14T11:37:33.566Z,6.37
2018-06-14T11:40:00.991Z,6.87
2018-06-14T11:42:28.313Z,6.13
2018-06-14T11:44:55.741Z,7.20
2018-06-14T11:47:23.077Z,6.87
2018-06-14T11:49:50.533Z,7.10
2018-06-14T11:52:17.891Z,6.47
2018-06-14T11:54:45.366Z,6.37
2018-06-14T11:57:12.772Z,5.50
2018-06-14T11:59:40.085Z,5.43
2018-06-14T12:02:07.648Z,6.17
2018-06-14T12:04:35.055Z,7.00
2018-06-14T12:07:02.401Z,6.50
2018-06-14T12:09:29.785Z,8.00
2018-06-14T12:11:57.089Z,7.10
2018-06-14T12:14:24.473Z,6.77
2018-06-14T12:16:51.805Z,5.40
2018-06-14T12:19:19.152Z,6.10
2018-06-14T12:21:46.471Z,6.17
2018-06-14T12:24:13.820Z,7.63
2018-06-14T12:26:41.163Z,7.00
2018-06-14T12:29:08.557Z,6.57
2018-06-14T12:31:35.976Z,7.60
2018-06-14T12:34:03.381Z,6.93
2018-06-14T12:36:30.750Z,9.13
2018-06-14T12:38:58.113Z,9.40
2018-06-14T12:41:25.556Z,7.40
2018-06-14T12:43:52.933Z,8.47
2018-06-14T12:46:20.258Z,7.20
2018-06-14T12:48:47.613Z,7.50
2018-06-14T12:51:15.113Z,8.27
2018-06-14T12:53:42.453Z,9.00
2018-06-14T12:56:09.809Z,8.37
2018-06-14T12:58:37.144Z,8.27
2018-06-14T13:01:04.517Z,8.80
2018-06-14T13:03:31.884Z,8.00
2018-06-14T13:05:59.248Z,8.50
2018-06-14T13:08:26.717Z,9.00
2018-06-14T13:10:54.170Z,8.63
2018-06-14T13:13:21.578Z,9.60
2018-06-14T13:15:49.065Z,9.10
2018-06-14T13:18:16.333Z,9.20
2018-06-14T13:20:43.658Z,8.50
2018-06-14T13:23:10.985Z,7.90
2018-06-14T13:25:38.400Z,11.00
2018-06-14T13:28:05.742Z,13.50
2018-06-14T13:30:33.171Z,10.87
2018-06-14T13:33:00.525Z,10.70
2018-06-14T13:35:27.921Z,11.53
2018-06-14T13:37:55.289Z,10.90
2018-06-14T13:40:22.697Z,9.70
2018-06-14T13:42:50.921Z,9.90
2018-06-14T13:45:18.263Z,9.80
2018-06-14T13:47:45.585Z,11.07
2018-06-14T13:50:12.914Z,11.00
2018-06-14T13:52:40.337Z,10.63
2018-06-14T13:55:07.749Z,12.20
2018-06-14T13:57:35.148Z,9.77
2018-06-14T14:00:02.597Z,11.67
2018-06-14T14:02:29.937Z,13.53
2018-06-14T14:04:57.294Z,11.50
2018-06-14T14:07:25.582Z,11.40
2018-06-14T14:09:53.334Z,12.70
2018-06-14T14:12:20.646Z,11.97
2018-06-14T14:14:48.102Z,13.60
2018-06-14T14:17:15.518Z,11.30
2018-06-14T14:19:42.840Z,11.83
2018-06-14T14:22:10.152Z,11.67
2018-06-14T14:24:37.517Z,12.73
2018-06-14T14:27:04.905Z,13.07
2018-06-14T14:29:32.217Z,10.77
2018-06-14T14:31:59.665Z,11.40
2018-06-14T14:34:26.995Z,10.83
2018-06-14T14:36:54.381Z,11.00
2018-06-14T14:39:21.697Z,11.00
2018-06-14T14:41:49.001Z,12.73
2018-06-14T14:44:16.357Z,10.27
2018-06-14T14:46:43.662Z,9.80
2018-06-14T14:49:10.974Z,12.07
2018-06-14T14:51:38.362Z,11.53
2018-06-14T14:54:05.753Z,10.30
2018-06-14T14:56:33.205Z,10.70
2018-06-14T14:59:00.521Z,11.33
2018-06-14T15:01:27.873Z,11.90
2018-06-14T15:03:55.400Z,10.63
2018-06-14T15:06:22.789Z,12.73
2018-06-14T15:08:50.135Z,13.30
2018-06-14T15:11:17.480Z,14.73
2018-06-14T15:13:44.793Z,12.77
2018-06-14T15:16:12.244Z,14.00
2018-06-14T15:18:39.564Z,13.27
2018-06-14T15:21:07.005Z,14.63
2018-06-14T15:23:34.413Z,15.37
2018-06-14T15:26:01.870Z,15.83
2018-06-14T15:28:29.261Z,17.97
2018-06-14T15:30:56.533Z,18.07
2018-06-14T15:33:23.885Z,17.27
2018-06-14T15:35:51.267Z,18.00
2018-06-14T15:38:18.707Z,18.47
2018-06-14T15:40:46.068Z,18.57
2018-06-14T15:43:13.401Z,17.73
2018-06-14T15:45:40.729Z,20.30
2018-06-14T15:48:08.116Z,20.47
2018-06-14T15:50:35.520Z,20.63
2018-06-14T15:53:02.864Z,20.83
2018-06-14T15:56:40.137Z,22.70
2018-06-14T15:59:11.734Z,22.43
2018-06-14T16:01:39.125Z,20.90
2018-06-14T16:04:07.063Z,21.53
2018-06-14T16:06:34.491Z,23.13
2018-06-14T16:09:01.914Z,22.10
2018-06-14T16:11:29.679Z,22.73
2018-06-14T16:13:57.289Z,19.10
2018-06-14T16:16:25.070Z,19.13
2018-06-14T16:18:52.981Z,18.73
2018-06-14T16:21:20.779Z,16.00
2018-06-14T16:23:48.230Z,18.17
2018-06-14T16:26:15.686Z,18.83
2018-06-14T16:28:43.113Z,18.47
2018-06-14T16:31:10.470Z,18.10
2018-06-14T16:33:37.833Z,18.47
2018-06-14T16:36:05.442Z,18.87
2018-06-14T16:38:32.841Z,18.77
2018-06-14T16:41:01.678Z,19.17
2018-06-14T16:43:29.061Z,18.00
2018-06-14T16:45:56.511Z,18.67
2018-06-14T16:48:23.864Z,20.50
2018-06-14T16:50:51.269Z,17.50
2018-06-14T16:53:18.655Z,18.53
2018-06-14T16:55:46.191Z,18.77
2018-06-14T16:58:13.770Z,18.90
2018-06-14T17:00:41.185Z,16.03
2018-06-14T17:03:08.530Z,16.33
2018-06-14T17:05:38.889Z,17.13
2018-06-14T17:08:06.291Z,17.20
2018-06-14T17:10:33.815Z,19.73
2018-06-14T17:13:01.254Z,16.40
2018-06-14T17:15:28.734Z,17.17
2018-06-14T17:17:56.211Z,18.20
2018-06-14T17:20:23.562Z,19.00
2018-06-14T17:22:50.925Z,18.10
2018-06-14T17:25:18.357Z,18.77
2018-06-14T17:27:45.873Z,19.47
2018-06-14T17:30:13.312Z,18.57
2018-06-14T17:32:40.613Z,18.63
2018-06-14T17:35:08.125Z,18.47
2018-06-14T17:37:35.958Z,18.80
2018-06-14T17:40:03.525Z,19.27
2018-06-14T17:42:30.893Z,18.93
2018-06-14T17:44:58.260Z,19.00
2018-06-14T17:47:25.595Z,19.57
2018-06-14T17:49:52.922Z,19.90
2018-06-14T17:52:20.360Z,20.60
2018-06-14T17:54:47.809Z,20.73
2018-06-14T17:57:15.180Z,21.00
2018-06-14T17:59:42.581Z,19.43
2018-06-14T18:02:09.950Z,21.00
2018-06-14T18:04:37.273Z,21.27
2018-06-14T18:07:04.656Z,19.40
2018-06-14T18:09:32.005Z,19.20
2018-06-14T18:11:59.444Z,19.83
2018-06-14T18:14:26.764Z,19.87
2018-06-14T18:16:54.146Z,20.00
2018-06-14T18:19:21.564Z,17.87
2018-06-14T18:21:49.121Z,20.07
2018-06-14T18:24:16.495Z,19.00
2018-06-14T18:26:43.877Z,20.00
2018-06-14T18:29:11.229Z,18.13
2018-06-14T18:31:38.725Z,20.03
2018-06-14T18:34:06.106Z,19.13
2018-06-14T18:36:33.489Z,18.93
2018-06-14T18:39:00.914Z,15.30
2018-06-14T18:41:28.366Z,20.80
2018-06-14T18:43:56.258Z,19.30
2018-06-14T18:46:23.734Z,18.53
2018-06-14T18:48:51.109Z,18.73
2018-06-14T18:51:18.505Z,18.13
2018-06-14T18:53:45.869Z,18.97
2018-06-14T18:56:13.274Z,16.67
2018-06-14T18:58:40.661Z,19.03
2018-06-14T19:01:08.192Z,17.93
2018-06-14T19:03:35.619Z,19.67
2018-06-14T19:06:02.988Z,15.70
2018-06-14T19:08:30.393Z,19.30
2018-06-14T19:10:57.733Z,18.93
2018-06-14T19:13:25.098Z,18.30
2018-06-14T19:15:52.585Z,18.60
2018-06-14T19:18:19.993Z,19.37
2018-06-14T19:20:47.369Z,20.00
2018-06-14T19:23:14.827Z,19.07
2018-06-14T19:25:42.246Z,20.10
2018-06-14T19:28:09.627Z,19.40
2018-06-14T19:30:36.998Z,18.50
2018-06-14T19:33:04.546Z,20.33
2018-06-14T19:35:31.897Z,17.13
2018-06-14T19:37:59.318Z,17.60
2018-06-14T19:40:26.666Z,18.70
2018-06-14T19:42:54.022Z,17.37
2018-06-14T19:45:21.483Z,18.93
2018-06-14T19:47:48.853Z,18.30
2018-06-14T19:50:16.283Z,20.83
2018-06-14T19:52:43.672Z,19.00
2018-06-14T19:55:11.122Z,20.17
2018-06-14T19:57:38.457Z,19.13
2018-06-14T20:00:06.453Z,20.13
2018-06-14T20:02:33.799Z,18.67
2018-06-14T20:05:01.202Z,21.80
2018-06-14T20:07:28.565Z,20.53
2018-06-14T20:09:55.945Z,19.50
2018-06-14T20:12:23.331Z,18.30
2018-06-14T20:14:50.738Z,18.07
2018-06-14T20:17:18.079Z,18.27
2018-06-14T20:19:46.513Z,19.87
2018-06-14T20:22:13.858Z,20.20
2018-06-14T20:24:41.305Z,18.20
2018-06-14T20:27:08.663Z,20.40
2018-06-14T20:29:36.010Z,20.30
2018-06-14T20:32:03.872Z,19.20
2018-06-14T20:34:31.350Z,22.90
2018-06-14T20:36:58.864Z,19.87
2018-06-14T20:39:26.355Z,23.10
2018-06-14T20:41:53.812Z,22.40
2018-06-14T20:44:21.238Z,23.70
2018-06-14T20:46:49.057Z,23.50
2018-06-14T20:49:16.489Z,22.97
2018-06-14T20:51:43.926Z,23.43
2018-06-14T20:54:11.437Z,24.40
2018-06-14T20:56:39.113Z,23.90
2018-06-14T20:59:06.794Z,25.03
2018-06-14T21:01:34.510Z,26.37
2018-06-14T21:04:03.686Z,25.20
2018-06-14T21:06:31.466Z,26.27
2018-06-14T21:08:58.975Z,27.77
2018-06-14T21:11:26.620Z,26.77
2018-06-14T21:13:54.216Z,29.07
2018-06-14T21:16:21.824Z,26.87
2018-06-14T21:18:49.245Z,28.07
2018-06-14T21:21:18.547Z,29.67
2018-06-14T21:23:46.186Z,29.37
2018-06-14T21:26:13.730Z,29.40
2018-06-14T21:28:41.263Z,31.60
2018-06-14T21:31:08.824Z,31.40
2018-06-14T21:33:36.678Z,34.10
2018-06-14T21:36:04.382Z,32.80
2018-06-14T21:38:31.998Z,29.80
2018-06-14T21:40:59.450Z,30.77
2018-06-14T21:43:27.015Z,29.43
2018-06-14T21:45:54.803Z,30.83
2018-06-14T21:48:23.393Z,29.60
2018-06-14T21:50:50.925Z,32.20
2018-06-14T21:53:18.421Z,29.50
2018-06-14T21:55:45.961Z,30.17
2018-06-14T21:58:13.464Z,30.07
2018-06-14T22:00:40.957Z,30.63
2018-06-14T22:03:14.037Z,30.83
2018-06-14T22:05:41.733Z,29.23
2018-06-14T22:08:09.226Z,30.00
2018-06-14T22:10:36.859Z,29.10
2018-06-14T22:13:04.329Z,29.47
2018-06-14T22:15:31.811Z,29.10
2018-06-14T22:17:59.449Z,29.63
2018-06-14T22:20:27.127Z,26.63
2018-06-14T22:22:54.831Z,29.57
2018-06-14T22:25:22.254Z,29.90
2018-06-14T22:27:49.639Z,29.30
2018-06-14T22:30:17.823Z,30.43
2018-06-14T22:32:46.161Z,28.77
2018-06-14T22:35:23.389Z,28.50
2018-06-14T22:37:50.891Z,29.70
2018-06-14T22:40:18.417Z,28.37
2018-06-14T22:42:45.849Z,28.80
2018-06-14T22:45:13.310Z,27.43
2018-06-14T22:47:40.983Z,25.27
2018-06-14T22:50:08.557Z,30.07
2018-06-14T22:53:12.577Z,28.10
2018-06-14T22:55:40.336Z,28.93
2018-06-14T22:58:08.706Z,28.23
2018-06-14T23:01:49.362Z,29.90
2018-06-14T23:04:22.105Z,28.43
2018-06-14T23:06:49.791Z,29.00
2018-06-14T23:10:29.793Z,29.30
2018-06-14T23:12:57.237Z,31.10
2018-06-14T23:15:24.717Z,30.07
2018-06-14T23:17:52.657Z,29.30
2018-06-14T23:20:21.260Z,31.03
2018-06-14T23:22:50.814Z,30.47
2018-06-14T23:25:19.072Z,30.40
2018-06-14T23:27:46.688Z,31.17
2018-06-14T23:30:14.127Z,31.10
2018-06-14T23:32:41.586Z,31.17
2018-06-14T23:35:09.394Z,29.33
2018-06-14T23:37:36.963Z,30.73
2018-06-14T23:40:04.518Z,32.07
2018-06-14T23:42:32.094Z,30.60
2018-06-14T23:44:59.425Z,30.57
2018-06-14T23:47:27.210Z,30.70
2018-06-14T23:49:55.093Z,29.73
2018-06-14T23:52:22.473Z,32.37
2018-06-14T23:54:49.829Z,32.17
2018-06-14T23:57:17.678Z,33.23
2018-06-14T23:59:45.161Z,32.23
